sensor_id;sensor_type;location;lat;lon;timestamp;temperature;humidity
19813;DHT22;10066;48.108;11.448;2023-03-16T00:02:22;2.20;99.90
19813;DHT22;10066;48.108;11.448;2023-03-16T00:04:49;2.30;99.90
19813;DHT22;10066;48.108;11.448;2023-03-16T00:07:18;2.30;99.90
19813;DHT22;10066;48.108;11.448;2023-03-16T00:09:46;2.30;99.90
19813;DHT22;10066;48.108;11.448;2023-03-16T00:12:15;2.30;99.90
19813;DHT22;10066;48.108;11.448;2023-03-16T00:14:42;2.40;99.90
19813;DHT22;10066;48.108;11.448;2023-03-16T00:17:09;2.30;99.90
19813;DHT22;10066;48.108;11.448;2023-03-16T00:19:44;2.30;99.90
19813;DHT22;10066;48.108;11.448;2023-03-16T00:22:13;2.20;99.90
19813;DHT22;10066;48.108;11.448;2023-03-16T00:24:41;2.20;99.90
19813;DHT22;10066;48.108;11.448;2023-03-16T00:27:09;2.10;99.90
19813;DHT22;10066;48.108;11.448;2023-03-16T00:29:41;2.10;99.90
19813;DHT22;10066;48.108;11.448;2023-03-16T00:32:13;2.00;99.90
19813;DHT22;10066;48.108;11.448;2023-03-16T00:34:41;1.90;99.90
19813;DHT22;10066;48.108;11.448;2023-03-16T00:37:08;1.90;99.90
19813;DHT22;10066;48.108;11.448;2023-03-16T00:39:35;1.80;99.90
19813;DHT22;10066;48.108;11.448;2023-03-16T00:42:03;1.70;99.90
19813;DHT22;10066;48.108;11.448;2023-03-16T00:44:30;1.70;99.90
19813;DHT22;10066;48.108;11.448;2023-03-16T00:46:57;1.60;99.90
19813;DHT22;10066;48.108;11.448;2023-03-16T00:49:24;1.50;99.90
19813;DHT22;10066;48.108;11.448;2023-03-16T00:51:51;1.40;99.90
19813;DHT22;10066;48.108;11.448;2023-03-16T00:54:18;1.40;99.90
19813;DHT22;10066;48.108;11.448;2023-03-16T00:56:46;1.30;99.90
19813;DHT22;10066;48.108;11.448;2023-03-16T00:59:15;1.30;99.90
19813;DHT22;10066;48.108;11.448;2023-03-16T01:01:44;1.30;99.90
19813;DHT22;10066;48.108;11.448;2023-03-16T01:04:12;1.30;99.90
19813;DHT22;10066;48.108;11.448;2023-03-16T01:06:39;1.30;99.90
19813;DHT22;10066;48.108;11.448;2023-03-16T01:09:06;1.30;99.90
19813;DHT22;10066;48.108;11.448;2023-03-16T01:11:34;1.30;99.90
19813;DHT22;10066;48.108;11.448;2023-03-16T01:14:01;1.30;99.90
19813;DHT22;10066;48.108;11.448;2023-03-16T01:16:29;1.30;99.90
19813;DHT22;10066;48.108;11.448;2023-03-16T01:18:58;1.20;99.90
19813;DHT22;10066;48.108;11.448;2023-03-16T01:21:26;1.20;99.90
19813;DHT22;10066;48.108;11.448;2023-03-16T01:23:53;1.20;99.90
19813;DHT22;10066;48.108;11.448;2023-03-16T01:26:20;1.10;99.90
19813;DHT22;10066;48.108;11.448;2023-03-16T01:28:49;1.10;99.90
19813;DHT22;10066;48.108;11.448;2023-03-16T01:31:16;1.10;99.90
19813;DHT22;10066;48.108;11.448;2023-03-16T01:33:45;1.10;99.90
19813;DHT22;10066;48.108;11.448;2023-03-16T01:36:13;1.10;99.90
19813;DHT22;10066;48.108;11.448;2023-03-16T01:38:41;1.00;99.90
19813;DHT22;10066;48.108;11.448;2023-03-16T01:41:08;1.00;99.90
19813;DHT22;10066;48.108;11.448;2023-03-16T01:43:38;1.00;99.90
19813;DHT22;10066;48.108;11.448;2023-03-16T01:46:14;0.90;99.90
19813;DHT22;10066;48.108;11.448;2023-03-16T01:48:51;0.90;99.90
19813;DHT22;10066;48.108;11.448;2023-03-16T01:51:23;0.80;99.90
19813;DHT22;10066;48.108;11.448;2023-03-16T01:53:55;0.80;99.90
19813;DHT22;10066;48.108;11.448;2023-03-16T01:56:26;0.70;99.90
19813;DHT22;10066;48.108;11.448;2023-03-16T01:58:57;0.60;99.90
19813;DHT22;10066;48.108;11.448;2023-03-16T02:01:27;0.50;99.90
19813;DHT22;10066;48.108;11.448;2023-03-16T02:04:03;0.50;99.90
19813;DHT22;10066;48.108;11.448;2023-03-16T02:06:31;0.40;99.90
19813;DHT22;10066;48.108;11.448;2023-03-16T02:08:58;0.40;99.90
19813;DHT22;10066;48.108;11.448;2023-03-16T02:11:26;0.30;99.90
19813;DHT22;10066;48.108;11.448;2023-03-16T02:13:54;0.30;99.90
19813;DHT22;10066;48.108;11.448;2023-03-16T02:16:22;0.30;99.90
19813;DHT22;10066;48.108;11.448;2023-03-16T02:18:50;0.20;99.90
19813;DHT22;10066;48.108;11.448;2023-03-16T02:21:23;0.20;99.90
19813;DHT22;10066;48.108;11.448;2023-03-16T02:23:52;0.20;99.90
19813;DHT22;10066;48.108;11.448;2023-03-16T02:26:24;0.20;99.90
19813;DHT22;10066;48.108;11.448;2023-03-16T02:29:01;0.10;99.90
19813;DHT22;10066;48.108;11.448;2023-03-16T02:31:34;0.10;99.90
19813;DHT22;10066;48.108;11.448;2023-03-16T02:34:01;0.10;99.90
19813;DHT22;10066;48.108;11.448;2023-03-16T02:36:29;0.10;99.90
19813;DHT22;10066;48.108;11.448;2023-03-16T02:38:56;0.10;99.90
19813;DHT22;10066;48.108;11.448;2023-03-16T02:41:23;0.10;99.90
19813;DHT22;10066;48.108;11.448;2023-03-16T02:43:54;0.10;99.90
19813;DHT22;10066;48.108;11.448;2023-03-16T02:46:25;0.20;99.90
19813;DHT22;10066;48.108;11.448;2023-03-16T02:49:00;0.20;99.90
19813;DHT22;10066;48.108;11.448;2023-03-16T02:51:30;0.30;99.90
19813;DHT22;10066;48.108;11.448;2023-03-16T02:53:57;0.40;99.90
19813;DHT22;10066;48.108;11.448;2023-03-16T02:56:25;0.40;99.90
19813;DHT22;10066;48.108;11.448;2023-03-16T02:58:52;0.50;99.90
19813;DHT22;10066;48.108;11.448;2023-03-16T03:01:21;0.50;99.90
19813;DHT22;10066;48.108;11.448;2023-03-16T03:03:48;0.50;99.90
19813;DHT22;10066;48.108;11.448;2023-03-16T03:06:17;0.50;99.90
19813;DHT22;10066;48.108;11.448;2023-03-16T03:08:44;0.50;99.90
19813;DHT22;10066;48.108;11.448;2023-03-16T03:11:11;0.50;99.90
19813;DHT22;10066;48.108;11.448;2023-03-16T03:13:37;0.40;99.90
19813;DHT22;10066;48.108;11.448;2023-03-16T03:16:09;0.40;99.90
19813;DHT22;10066;48.108;11.448;2023-03-16T03:18:36;0.40;99.90
19813;DHT22;10066;48.108;11.448;2023-03-16T03:21:04;0.40;99.90
19813;DHT22;10066;48.108;11.448;2023-03-16T03:23:32;0.40;99.90
19813;DHT22;10066;48.108;11.448;2023-03-16T03:26:00;0.30;99.90
19813;DHT22;10066;48.108;11.448;2023-03-16T03:28:29;0.30;99.90
19813;DHT22;10066;48.108;11.448;2023-03-16T03:30:56;0.20;99.90
19813;DHT22;10066;48.108;11.448;2023-03-16T03:33:23;0.20;99.90
19813;DHT22;10066;48.108;11.448;2023-03-16T03:35:53;0.10;99.90
19813;DHT22;10066;48.108;11.448;2023-03-16T03:38:21;0.10;99.90
19813;DHT22;10066;48.108;11.448;2023-03-16T03:40:50;0.00;99.90
19813;DHT22;10066;48.108;11.448;2023-03-16T03:43:18;0.00;99.90
19813;DHT22;10066;48.108;11.448;2023-03-16T03:45:45;-0.10;99.90
19813;DHT22;10066;48.108;11.448;2023-03-16T03:48:12;-0.10;99.90
19813;DHT22;10066;48.108;11.448;2023-03-16T03:50:39;-0.10;99.90
19813;DHT22;10066;48.108;11.448;2023-03-16T03:55:34;-0.20;99.90
19813;DHT22;10066;48.108;11.448;2023-03-16T03:58:02;-0.20;99.90
19813;DHT22;10066;48.108;11.448;2023-03-16T04:00:29;-0.30;99.90
19813;DHT22;10066;48.108;11.448;2023-03-16T04:02:56;-0.30;99.90
19813;DHT22;10066;48.108;11.448;2023-03-16T04:05:23;-0.30;99.90
19813;DHT22;10066;48.108;11.448;2023-03-16T04:07:52;-0.40;99.90
19813;DHT22;10066;48.108;11.448;2023-03-16T04:10:22;-0.40;99.90
19813;DHT22;10066;48.108;11.448;2023-03-16T04:12:49;-0.40;99.90
19813;DHT22;10066;48.108;11.448;2023-03-16T04:15:17;-0.50;99.90
19813;DHT22;10066;48.108;11.448;2023-03-16T04:17:44;-0.50;99.90
19813;DHT22;10066;48.108;11.448;2023-03-16T04:20:12;-0.50;99.90
19813;DHT22;10066;48.108;11.448;2023-03-16T04:22:40;-0.50;99.90
19813;DHT22;10066;48.108;11.448;2023-03-16T04:25:08;-0.60;99.90
19813;DHT22;10066;48.108;11.448;2023-03-16T04:27:35;-0.60;99.90
19813;DHT22;10066;48.108;11.448;2023-03-16T04:30:04;-0.60;99.90
19813;DHT22;10066;48.108;11.448;2023-03-16T04:32:33;-0.60;99.90
19813;DHT22;10066;48.108;11.448;2023-03-16T04:35:00;-0.60;99.90
19813;DHT22;10066;48.108;11.448;2023-03-16T04:37:27;-0.70;99.90
19813;DHT22;10066;48.108;11.448;2023-03-16T04:39:54;-0.70;99.90
19813;DHT22;10066;48.108;11.448;2023-03-16T04:42:21;-0.70;99.90
19813;DHT22;10066;48.108;11.448;2023-03-16T04:44:48;-0.70;99.90
19813;DHT22;10066;48.108;11.448;2023-03-16T04:47:16;-0.70;99.90
19813;DHT22;10066;48.108;11.448;2023-03-16T04:49:46;-0.70;99.90
19813;DHT22;10066;48.108;11.448;2023-03-16T04:52:13;-0.80;99.90
19813;DHT22;10066;48.108;11.448;2023-03-16T04:54:40;-0.80;99.90
19813;DHT22;10066;48.108;11.448;2023-03-16T04:57:07;-0.80;99.90
19813;DHT22;10066;48.108;11.448;2023-03-16T04:59:33;-0.80;99.90
19813;DHT22;10066;48.108;11.448;2023-03-16T05:02:01;-0.90;99.90
19813;DHT22;10066;48.108;11.448;2023-03-16T05:04:28;-0.90;99.90
19813;DHT22;10066;48.108;11.448;2023-03-16T05:06:56;-0.90;99.90
19813;DHT22;10066;48.108;11.448;2023-03-16T05:09:23;-0.90;99.90
19813;DHT22;10066;48.108;11.448;2023-03-16T05:11:50;-0.90;99.90
19813;DHT22;10066;48.108;11.448;2023-03-16T05:14:17;-1.00;99.90
19813;DHT22;10066;48.108;11.448;2023-03-16T05:16:44;-1.00;99.90
19813;DHT22;10066;48.108;11.448;2023-03-16T05:19:11;-1.00;99.90
19813;DHT22;10066;48.108;11.448;2023-03-16T05:21:38;-1.00;99.90
19813;DHT22;10066;48.108;11.448;2023-03-16T05:24:08;-1.00;99.90
19813;DHT22;10066;48.108;11.448;2023-03-16T05:26:36;-1.00;99.90
19813;DHT22;10066;48.108;11.448;2023-03-16T05:29:03;-1.00;99.90
19813;DHT22;10066;48.108;11.448;2023-03-16T05:31:31;-1.00;99.90
19813;DHT22;10066;48.108;11.448;2023-03-16T05:33:58;-1.00;99.90
19813;DHT22;10066;48.108;11.448;2023-03-16T05:36:27;-1.00;99.90
19813;DHT22;10066;48.108;11.448;2023-03-16T05:38:53;-1.00;99.90
19813;DHT22;10066;48.108;11.448;2023-03-16T05:41:22;-1.00;99.90
19813;DHT22;10066;48.108;11.448;2023-03-16T05:43:49;-1.00;99.90
19813;DHT22;10066;48.108;11.448;2023-03-16T05:46:15;-0.90;99.90
19813;DHT22;10066;48.108;11.448;2023-03-16T05:48:42;-0.90;99.90
19813;DHT22;10066;48.108;11.448;2023-03-16T05:51:09;-0.80;99.90
19813;DHT22;10066;48.108;11.448;2023-03-16T05:53:38;-0.80;99.90
19813;DHT22;10066;48.108;11.448;2023-03-16T05:56:06;-0.70;99.90
19813;DHT22;10066;48.108;11.448;2023-03-16T05:58:34;-0.60;99.90
19813;DHT22;10066;48.108;11.448;2023-03-16T06:01:02;-0.50;99.90
19813;DHT22;10066;48.108;11.448;2023-03-16T06:03:29;-0.40;99.90
19813;DHT22;10066;48.108;11.448;2023-03-16T06:05:56;-0.30;99.90
19813;DHT22;10066;48.108;11.448;2023-03-16T06:08:23;-0.30;99.90
19813;DHT22;10066;48.108;11.448;2023-03-16T06:10:50;-0.20;99.90
19813;DHT22;10066;48.108;11.448;2023-03-16T06:13:17;-0.10;99.90
19813;DHT22;10066;48.108;11.448;2023-03-16T06:15:46;0.00;99.90
19813;DHT22;10066;48.108;11.448;2023-03-16T06:18:13;0.10;99.90
19813;DHT22;10066;48.108;11.448;2023-03-16T06:20:40;0.20;99.90
19813;DHT22;10066;48.108;11.448;2023-03-16T06:23:06;0.20;99.90
19813;DHT22;10066;48.108;11.448;2023-03-16T06:25:33;0.40;99.90
19813;DHT22;10066;48.108;11.448;2023-03-16T06:28:00;0.50;99.90
19813;DHT22;10066;48.108;11.448;2023-03-16T06:30:27;0.60;99.90
19813;DHT22;10066;48.108;11.448;2023-03-16T06:32:55;0.70;99.90
19813;DHT22;10066;48.108;11.448;2023-03-16T06:35:26;0.80;99.90
19813;DHT22;10066;48.108;11.448;2023-03-16T06:37:53;0.90;99.90
19813;DHT22;10066;48.108;11.448;2023-03-16T06:40:20;0.90;99.90
19813;DHT22;10066;48.108;11.448;2023-03-16T06:42:47;0.90;99.90
19813;DHT22;10066;48.108;11.448;2023-03-16T06:45:14;1.00;99.90
19813;DHT22;10066;48.108;11.448;2023-03-16T06:47:41;1.00;99.90
19813;DHT22;10066;48.108;11.448;2023-03-16T06:50:10;1.00;99.90
19813;DHT22;10066;48.108;11.448;2023-03-16T06:52:37;1.10;99.90
19813;DHT22;10066;48.108;11.448;2023-03-16T06:55:05;1.20;99.90
19813;DHT22;10066;48.108;11.448;2023-03-16T06:57:33;1.30;99.90
19813;DHT22;10066;48.108;11.448;2023-03-16T07:00:00;1.50;99.90
19813;DHT22;10066;48.108;11.448;2023-03-16T07:02:28;1.60;99.90
19813;DHT22;10066;48.108;11.448;2023-03-16T07:04:56;1.70;99.90
19813;DHT22;10066;48.108;11.448;2023-03-16T07:07:24;1.80;99.90
19813;DHT22;10066;48.108;11.448;2023-03-16T07:09:51;1.80;99.90
19813;DHT22;10066;48.108;11.448;2023-03-16T07:12:18;1.80;99.90
19813;DHT22;10066;48.108;11.448;2023-03-16T07:14:45;1.90;99.90
19813;DHT22;10066;48.108;11.448;2023-03-16T07:17:12;1.90;99.90
19813;DHT22;10066;48.108;11.448;2023-03-16T07:19:39;2.00;99.90
19813;DHT22;10066;48.108;11.448;2023-03-16T07:22:06;2.00;99.90
19813;DHT22;10066;48.108;11.448;2023-03-16T07:24:34;2.10;99.90
19813;DHT22;10066;48.108;11.448;2023-03-16T07:27:01;2.20;99.90
19813;DHT22;10066;48.108;11.448;2023-03-16T07:29:28;2.20;99.90
19813;DHT22;10066;48.108;11.448;2023-03-16T07:31:55;2.30;99.90
19813;DHT22;10066;48.108;11.448;2023-03-16T07:34:22;2.40;99.90
19813;DHT22;10066;48.108;11.448;2023-03-16T07:36:49;2.50;99.90
19813;DHT22;10066;48.108;11.448;2023-03-16T07:39:17;2.50;99.90
19813;DHT22;10066;48.108;11.448;2023-03-16T07:44:13;2.70;99.90
19813;DHT22;10066;48.108;11.448;2023-03-16T07:46:40;2.80;99.90
19813;DHT22;10066;48.108;11.448;2023-03-16T07:49:08;2.90;99.90
19813;DHT22;10066;48.108;11.448;2023-03-16T07:51:36;3.00;99.90
19813;DHT22;10066;48.108;11.448;2023-03-16T07:54:03;3.10;99.90
19813;DHT22;10066;48.108;11.448;2023-03-16T07:56:30;3.10;99.90
19813;DHT22;10066;48.108;11.448;2023-03-16T07:58:59;3.10;99.90
19813;DHT22;10066;48.108;11.448;2023-03-16T08:01:26;3.10;99.90
19813;DHT22;10066;48.108;11.448;2023-03-16T08:03:53;3.00;99.90
19813;DHT22;10066;48.108;11.448;2023-03-16T08:06:20;3.00;99.90
19813;DHT22;10066;48.108;11.448;2023-03-16T08:08:50;3.00;99.90
19813;DHT22;10066;48.108;11.448;2023-03-16T08:11:16;3.00;99.90
19813;DHT22;10066;48.108;11.448;2023-03-16T08:13:48;3.00;99.90
19813;DHT22;10066;48.108;11.448;2023-03-16T08:16:19;3.10;99.90
19813;DHT22;10066;48.108;11.448;2023-03-16T08:18:46;3.10;99.90
19813;DHT22;10066;48.108;11.448;2023-03-16T08:21:15;3.20;99.90
19813;DHT22;10066;48.108;11.448;2023-03-16T08:23:42;3.30;99.90
19813;DHT22;10066;48.108;11.448;2023-03-16T08:26:14;3.30;99.90
19813;DHT22;10066;48.108;11.448;2023-03-16T08:28:42;3.40;99.90
19813;DHT22;10066;48.108;11.448;2023-03-16T08:31:12;3.40;99.90
19813;DHT22;10066;48.108;11.448;2023-03-16T08:33:41;3.50;99.90
19813;DHT22;10066;48.108;11.448;2023-03-16T08:36:10;3.60;99.90
19813;DHT22;10066;48.108;11.448;2023-03-16T08:38:38;3.80;99.90
19813;DHT22;10066;48.108;11.448;2023-03-16T08:41:05;3.90;99.90
19813;DHT22;10066;48.108;11.448;2023-03-16T08:43:33;3.90;99.90
19813;DHT22;10066;48.108;11.448;2023-03-16T08:46:02;4.00;99.90
19813;DHT22;10066;48.108;11.448;2023-03-16T08:48:29;4.10;99.90
19813;DHT22;10066;48.108;11.448;2023-03-16T08:51:00;4.20;99.90
19813;DHT22;10066;48.108;11.448;2023-03-16T08:53:27;4.20;99.90
19813;DHT22;10066;48.108;11.448;2023-03-16T08:56:00;4.20;99.90
19813;DHT22;10066;48.108;11.448;2023-03-16T08:58:29;4.30;99.90
19813;DHT22;10066;48.108;11.448;2023-03-16T09:00:57;4.40;99.90
19813;DHT22;10066;48.108;11.448;2023-03-16T09:03:24;4.60;99.90
19813;DHT22;10066;48.108;11.448;2023-03-16T09:05:51;4.70;99.90
19813;DHT22;10066;48.108;11.448;2023-03-16T09:08:19;4.70;99.90
19813;DHT22;10066;48.108;11.448;2023-03-16T09:10:46;4.70;99.90
19813;DHT22;10066;48.108;11.448;2023-03-16T09:13:13;4.70;99.90
19813;DHT22;10066;48.108;11.448;2023-03-16T09:15:40;4.80;99.90
19813;DHT22;10066;48.108;11.448;2023-03-16T09:18:08;4.80;99.90
19813;DHT22;10066;48.108;11.448;2023-03-16T09:20:36;4.80;99.90
19813;DHT22;10066;48.108;11.448;2023-03-16T09:23:03;4.80;99.90
19813;DHT22;10066;48.108;11.448;2023-03-16T09:25:31;4.70;99.90
19813;DHT22;10066;48.108;11.448;2023-03-16T09:27:58;4.70;99.90
19813;DHT22;10066;48.108;11.448;2023-03-16T09:30:26;4.70;99.90
19813;DHT22;10066;48.108;11.448;2023-03-16T09:32:53;4.70;99.90
19813;DHT22;10066;48.108;11.448;2023-03-16T09:35:20;4.70;99.90
19813;DHT22;10066;48.108;11.448;2023-03-16T09:37:47;4.70;99.90
19813;DHT22;10066;48.108;11.448;2023-03-16T09:40:19;4.70;99.90
19813;DHT22;10066;48.108;11.448;2023-03-16T09:42:54;4.70;99.90
19813;DHT22;10066;48.108;11.448;2023-03-16T09:45:33;4.70;99.90
19813;DHT22;10066;48.108;11.448;2023-03-16T09:48:03;4.70;99.90
19813;DHT22;10066;48.108;11.448;2023-03-16T09:50:35;4.70;99.90
19813;DHT22;10066;48.108;11.448;2023-03-16T09:53:06;4.70;99.90
19813;DHT22;10066;48.108;11.448;2023-03-16T09:55:37;4.80;99.90
19813;DHT22;10066;48.108;11.448;2023-03-16T09:58:16;4.90;99.90
19813;DHT22;10066;48.108;11.448;2023-03-16T10:00:47;4.90;99.90
19813;DHT22;10066;48.108;11.448;2023-03-16T10:03:29;5.00;99.90
19813;DHT22;10066;48.108;11.448;2023-03-16T10:06:00;5.10;99.90
19813;DHT22;10066;48.108;11.448;2023-03-16T10:08:32;5.10;99.90
19813;DHT22;10066;48.108;11.448;2023-03-16T10:11:08;5.10;99.90
19813;DHT22;10066;48.108;11.448;2023-03-16T10:13:42;5.10;99.90
19813;DHT22;10066;48.108;11.448;2023-03-16T10:16:13;5.10;99.90
19813;DHT22;10066;48.108;11.448;2023-03-16T10:18:45;5.20;99.90
19813;DHT22;10066;48.108;11.448;2023-03-16T10:21:14;5.20;99.90
19813;DHT22;10066;48.108;11.448;2023-03-16T10:23:43;5.30;99.90
19813;DHT22;10066;48.108;11.448;2023-03-16T10:26:14;5.30;99.90
19813;DHT22;10066;48.108;11.448;2023-03-16T10:28:44;5.40;99.90
19813;DHT22;10066;48.108;11.448;2023-03-16T10:31:14;5.40;99.90
19813;DHT22;10066;48.108;11.448;2023-03-16T10:33:44;5.50;99.90
19813;DHT22;10066;48.108;11.448;2023-03-16T10:36:17;5.60;99.90
19813;DHT22;10066;48.108;11.448;2023-03-16T10:38:46;5.60;99.90
19813;DHT22;10066;48.108;11.448;2023-03-16T10:41:27;5.60;99.90
19813;DHT22;10066;48.108;11.448;2023-03-16T10:43:59;5.60;99.90
19813;DHT22;10066;48.108;11.448;2023-03-16T10:46:39;5.60;99.90
19813;DHT22;10066;48.108;11.448;2023-03-16T10:49:19;5.50;99.90
19813;DHT22;10066;48.108;11.448;2023-03-16T10:51:46;5.40;99.90
19813;DHT22;10066;48.108;11.448;2023-03-16T10:54:15;5.30;99.90
19813;DHT22;10066;48.108;11.448;2023-03-16T10:56:42;5.20;99.90
19813;DHT22;10066;48.108;11.448;2023-03-16T10:59:26;5.20;99.90
19813;DHT22;10066;48.108;11.448;2023-03-16T11:01:54;5.20;99.90
19813;DHT22;10066;48.108;11.448;2023-03-16T11:04:21;5.20;99.90
19813;DHT22;10066;48.108;11.448;2023-03-16T11:06:52;5.20;99.90
19813;DHT22;10066;48.108;11.448;2023-03-16T11:09:23;5.20;99.90
19813;DHT22;10066;48.108;11.448;2023-03-16T11:11:52;5.30;99.90
19813;DHT22;10066;48.108;11.448;2023-03-16T11:14:24;5.30;99.90
19813;DHT22;10066;48.108;11.448;2023-03-16T11:16:59;5.30;99.90
19813;DHT22;10066;48.108;11.448;2023-03-16T11:19:30;5.40;99.90
19813;DHT22;10066;48.108;11.448;2023-03-16T11:22:01;5.30;99.90
19813;DHT22;10066;48.108;11.448;2023-03-16T11:24:37;5.30;99.90
19813;DHT22;10066;48.108;11.448;2023-03-16T11:27:14;5.30;99.90
19813;DHT22;10066;48.108;11.448;2023-03-16T11:29:56;5.30;99.90
19813;DHT22;10066;48.108;11.448;2023-03-16T11:32:28;5.40;99.90
19813;DHT22;10066;48.108;11.448;2023-03-16T11:34:55;5.40;99.90
19813;DHT22;10066;48.108;11.448;2023-03-16T11:37:35;5.40;99.90
19813;DHT22;10066;48.108;11.448;2023-03-16T11:40:14;5.50;99.90
19813;DHT22;10066;48.108;11.448;2023-03-16T11:42:54;5.50;99.90
19813;DHT22;10066;48.108;11.448;2023-03-16T11:45:28;5.60;99.90
19813;DHT22;10066;48.108;11.448;2023-03-16T11:48:16;5.70;99.90
19813;DHT22;10066;48.108;11.448;2023-03-16T11:50:57;5.70;99.90
19813;DHT22;10066;48.108;11.448;2023-03-16T11:53:35;5.80;99.90
19813;DHT22;10066;48.108;11.448;2023-03-16T11:56:15;5.90;99.90
19813;DHT22;10066;48.108;11.448;2023-03-16T11:58:52;6.10;99.90
19813;DHT22;10066;48.108;11.448;2023-03-16T12:01:26;6.10;99.90
19813;DHT22;10066;48.108;11.448;2023-03-16T12:04:24;6.20;99.90
19813;DHT22;10066;48.108;11.448;2023-03-16T12:07:08;6.20;99.90
19813;DHT22;10066;48.108;11.448;2023-03-16T12:09:52;6.30;99.90
19813;DHT22;10066;48.108;11.448;2023-03-16T12:12:32;6.40;99.90
19813;DHT22;10066;48.108;11.448;2023-03-16T12:15:16;6.50;99.90
19813;DHT22;10066;48.108;11.448;2023-03-16T12:17:47;6.60;99.90
19813;DHT22;10066;48.108;11.448;2023-03-16T12:20:17;6.70;99.90
19813;DHT22;10066;48.108;11.448;2023-03-16T12:22:48;6.70;99.90
19813;DHT22;10066;48.108;11.448;2023-03-16T12:25:20;6.80;99.90
19813;DHT22;10066;48.108;11.448;2023-03-16T12:27:51;6.90;99.90
19813;DHT22;10066;48.108;11.448;2023-03-16T12:30:26;7.00;99.90
19813;DHT22;10066;48.108;11.448;2023-03-16T12:33:05;7.00;99.90
19813;DHT22;10066;48.108;11.448;2023-03-16T12:35:41;7.00;99.90
19813;DHT22;10066;48.108;11.448;2023-03-16T12:38:19;7.10;99.90
19813;DHT22;10066;48.108;11.448;2023-03-16T12:40:54;7.20;99.90
19813;DHT22;10066;48.108;11.448;2023-03-16T12:43:38;7.30;99.90
19813;DHT22;10066;48.108;11.448;2023-03-16T12:46:11;7.40;99.90
19813;DHT22;10066;48.108;11.448;2023-03-16T12:48:43;7.50;99.90
19813;DHT22;10066;48.108;11.448;2023-03-16T12:51:11;7.50;99.90
19813;DHT22;10066;48.108;11.448;2023-03-16T12:53:41;7.70;99.90
19813;DHT22;10066;48.108;11.448;2023-03-16T12:56:11;7.70;99.90
19813;DHT22;10066;48.108;11.448;2023-03-16T12:58:42;7.80;99.90
19813;DHT22;10066;48.108;11.448;2023-03-16T13:01:10;7.90;99.90
19813;DHT22;10066;48.108;11.448;2023-03-16T13:03:41;7.90;99.90
19813;DHT22;10066;48.108;11.448;2023-03-16T13:06:20;8.00;99.90
19813;DHT22;10066;48.108;11.448;2023-03-16T13:08:50;8.00;99.90
19813;DHT22;10066;48.108;11.448;2023-03-16T13:11:18;8.10;99.90
19813;DHT22;10066;48.108;11.448;2023-03-16T13:13:50;8.20;99.90
19813;DHT22;10066;48.108;11.448;2023-03-16T13:18:55;8.20;99.90
19813;DHT22;10066;48.108;11.448;2023-03-16T13:21:34;8.20;99.90
19813;DHT22;10066;48.108;11.448;2023-03-16T13:24:13;8.30;99.90
19813;DHT22;10066;48.108;11.448;2023-03-16T13:26:49;8.30;99.90
19813;DHT22;10066;48.108;11.448;2023-03-16T13:29:23;8.30;99.90
19813;DHT22;10066;48.108;11.448;2023-03-16T13:31:52;8.40;99.90
19813;DHT22;10066;48.108;11.448;2023-03-16T13:34:22;8.40;99.90
19813;DHT22;10066;48.108;11.448;2023-03-16T13:36:53;8.40;99.90
19813;DHT22;10066;48.108;11.448;2023-03-16T13:39:23;8.50;99.90
19813;DHT22;10066;48.108;11.448;2023-03-16T13:42:00;8.50;99.90
19813;DHT22;10066;48.108;11.448;2023-03-16T13:44:28;8.60;99.90
19813;DHT22;10066;48.108;11.448;2023-03-16T13:46:55;8.60;99.90
19813;DHT22;10066;48.108;11.448;2023-03-16T13:49:23;8.60;99.90
19813;DHT22;10066;48.108;11.448;2023-03-16T13:51:50;8.60;99.90
19813;DHT22;10066;48.108;11.448;2023-03-16T13:54:21;8.70;99.90
19813;DHT22;10066;48.108;11.448;2023-03-16T13:56:50;8.70;99.90
19813;DHT22;10066;48.108;11.448;2023-03-16T13:59:19;8.70;99.90
19813;DHT22;10066;48.108;11.448;2023-03-16T14:01:47;8.80;99.90
19813;DHT22;10066;48.108;11.448;2023-03-16T14:04:15;8.80;99.90
19813;DHT22;10066;48.108;11.448;2023-03-16T14:06:53;8.80;99.90
19813;DHT22;10066;48.108;11.448;2023-03-16T14:09:24;8.90;99.90
19813;DHT22;10066;48.108;11.448;2023-03-16T14:11:53;8.90;99.90
19813;DHT22;10066;48.108;11.448;2023-03-16T14:14:25;8.90;99.90
19813;DHT22;10066;48.108;11.448;2023-03-16T14:16:58;9.00;99.90
19813;DHT22;10066;48.108;11.448;2023-03-16T14:19:27;9.00;99.90
19813;DHT22;10066;48.108;11.448;2023-03-16T14:22:02;9.00;99.90
19813;DHT22;10066;48.108;11.448;2023-03-16T14:24:32;9.10;99.90
19813;DHT22;10066;48.108;11.448;2023-03-16T14:27:14;9.10;99.90
19813;DHT22;10066;48.108;11.448;2023-03-16T14:29:43;9.00;98.60
19813;DHT22;10066;48.108;11.448;2023-03-16T14:32:20;9.00;99.90
19813;DHT22;10066;48.108;11.448;2023-03-16T14:34:53;9.00;99.50
19813;DHT22;10066;48.108;11.448;2023-03-16T14:37:34;9.10;99.90
19813;DHT22;10066;48.108;11.448;2023-03-16T14:40:04;9.10;97.20
19813;DHT22;10066;48.108;11.448;2023-03-16T14:42:31;9.10;98.50
19813;DHT22;10066;48.108;11.448;2023-03-16T14:45:01;9.10;99.30
19813;DHT22;10066;48.108;11.448;2023-03-16T14:47:37;9.10;99.10
19813;DHT22;10066;48.108;11.448;2023-03-16T14:50:07;9.10;98.30
19813;DHT22;10066;48.108;11.448;2023-03-16T14:52:37;9.20;98.90
19813;DHT22;10066;48.108;11.448;2023-03-16T14:55:11;9.20;98.80
19813;DHT22;10066;48.108;11.448;2023-03-16T14:57:39;9.20;97.60
19813;DHT22;10066;48.108;11.448;2023-03-16T15:00:08;9.10;98.20
19813;DHT22;10066;48.108;11.448;2023-03-16T15:02:36;9.20;98.40
19813;DHT22;10066;48.108;11.448;2023-03-16T15:05:04;9.10;97.70
19813;DHT22;10066;48.108;11.448;2023-03-16T15:07:34;9.10;96.70
19813;DHT22;10066;48.108;11.448;2023-03-16T15:10:07;9.10;97.10
19813;DHT22;10066;48.108;11.448;2023-03-16T15:12:35;9.10;96.50
19813;DHT22;10066;48.108;11.448;2023-03-16T15:15:08;9.10;97.00
19813;DHT22;10066;48.108;11.448;2023-03-16T15:17:43;9.10;95.90
19813;DHT22;10066;48.108;11.448;2023-03-16T15:20:12;9.10;96.10
19813;DHT22;10066;48.108;11.448;2023-03-16T15:22:41;9.10;96.60
19813;DHT22;10066;48.108;11.448;2023-03-16T15:25:23;9.10;96.90
19813;DHT22;10066;48.108;11.448;2023-03-16T15:27:51;9.10;96.80
19813;DHT22;10066;48.108;11.448;2023-03-16T15:30:22;9.10;97.60
19813;DHT22;10066;48.108;11.448;2023-03-16T15:32:49;9.00;95.50
19813;DHT22;10066;48.108;11.448;2023-03-16T15:35:16;9.00;97.10
19813;DHT22;10066;48.108;11.448;2023-03-16T15:37:43;9.00;97.00
19813;DHT22;10066;48.108;11.448;2023-03-16T15:40:16;9.00;96.90
19813;DHT22;10066;48.108;11.448;2023-03-16T15:42:44;8.90;96.60
19813;DHT22;10066;48.108;11.448;2023-03-16T15:45:12;8.90;97.70
19813;DHT22;10066;48.108;11.448;2023-03-16T15:47:41;8.90;97.50
19813;DHT22;10066;48.108;11.448;2023-03-16T15:50:11;8.90;97.10
19813;DHT22;10066;48.108;11.448;2023-03-16T15:52:40;8.90;95.90